createdAt,value
2023-02-18T00:00:05.368Z,92.89
2023-02-18T00:02:32.698Z,93.00
2023-02-18T00:04:59.567Z,92.98
2023-02-18T00:07:26.526Z,93.02
2023-02-18T00:09:53.185Z,93.09
2023-02-18T00:12:21.503Z,93.56
2023-02-18T00:14:48.575Z,93.24
2023-02-18T00:17:15.676Z,93.63
2023-02-18T00:19:42.693Z,93.13
2023-02-18T00:22:09.692Z,93.86
2023-02-18T00:24:36.394Z,93.39
2023-02-18T00:27:03.405Z,93.95
2023-02-18T00:29:32.405Z,93.88
2023-02-18T00:31:59.211Z,94.09
2023-02-18T00:34:26.123Z,94.05
2023-02-18T00:36:52.938Z,94.62
2023-02-18T00:39:26.412Z,95.48
2023-02-18T00:41:53.110Z,95.56
2023-02-18T00:44:20.118Z,95.37
2023-02-18T00:46:48.319Z,95.56
2023-02-18T00:49:16.319Z,95.42
2023-02-18T00:51:43.439Z,95.86
2023-02-18T00:54:10.639Z,96.19
2023-02-18T00:56:37.390Z,96.89
2023-02-18T00:59:04.389Z,96.30
2023-02-18T01:01:31.151Z,97.15
2023-02-18T01:03:59.593Z,97.39
2023-02-18T01:06:26.439Z,97.51
2023-02-18T01:08:53.170Z,97.26
2023-02-18T01:11:21.840Z,97.76
2023-02-18T01:13:48.842Z,97.61
2023-02-18T01:16:15.825Z,97.88
2023-02-18T01:18:42.625Z,98.16
2023-02-18T01:21:11.020Z,97.67
2023-02-18T01:23:39.322Z,97.93
2023-02-18T01:26:07.091Z,97.92
2023-02-18T01:28:34.229Z,98.24
2023-02-18T01:31:05.348Z,98.07
2023-02-18T01:33:32.093Z,97.62
2023-02-18T01:35:58.794Z,98.58
2023-02-18T01:38:26.937Z,98.98
2023-02-18T01:40:53.717Z,98.84
2023-02-18T01:43:21.645Z,98.54
2023-02-18T01:45:58.927Z,98.97
2023-02-18T01:48:30.293Z,98.85
2023-02-18T01:50:59.590Z,100.00
2023-02-18T01:53:35.945Z,99.60
2023-02-18T01:56:08.942Z,98.83
2023-02-18T01:58:36.681Z,98.78
2023-02-18T02:01:04.256Z,98.94
2023-02-18T02:03:31.406Z,99.00
2023-02-18T02:05:58.154Z,98.89
2023-02-18T02:08:25.130Z,98.99
2023-02-18T02:11:07.780Z,99.30
2023-02-18T02:13:52.906Z,99.69
2023-02-18T02:16:25.840Z,99.44
2023-02-18T02:19:04.215Z,99.65
2023-02-18T02:21:58.229Z,99.65
2023-02-18T02:24:56.709Z,99.88
2023-02-18T02:27:29.222Z,99.79
2023-02-18T02:30:41.841Z,99.96
2023-02-18T02:33:35.238Z,100.00
2023-02-18T02:36:12.733Z,100.00
2023-02-18T02:38:54.358Z,100.00
2023-02-18T02:41:33.664Z,100.00
2023-02-18T02:44:12.043Z,100.00
2023-02-18T02:46:41.234Z,100.00
2023-02-18T02:49:20.010Z,100.00
2023-02-18T02:51:56.737Z,100.00
2023-02-18T02:54:29.311Z,100.00
2023-02-18T02:57:08.765Z,100.00
2023-02-18T02:59:39.737Z,100.00
2023-02-18T03:02:24.417Z,99.60
2023-02-18T03:05:00.658Z,99.72
2023-02-18T03:07:57.060Z,100.00
2023-02-18T03:10:46.562Z,100.00
2023-02-18T03:13:25.975Z,100.00
2023-02-18T03:15:56.641Z,100.00
2023-02-18T03:18:31.263Z,100.00
2023-02-18T03:21:04.815Z,100.00
2023-02-18T03:23:37.497Z,100.00
2023-02-18T03:26:10.077Z,100.00
2023-02-18T03:28:38.904Z,100.00
2023-02-18T03:31:10.796Z,100.00
2023-02-18T03:33:40.637Z,100.00
2023-02-18T03:36:09.393Z,100.00
2023-02-18T03:38:40.631Z,100.00
2023-02-18T03:41:09.042Z,100.00
2023-02-18T03:43:35.762Z,100.00
2023-02-18T03:46:03.450Z,100.00
2023-02-18T03:48:30.261Z,100.00
2023-02-18T03:50:57.063Z,100.00
2023-02-18T03:53:24.044Z,100.00
2023-02-18T03:55:50.730Z,100.00
2023-02-18T03:58:19.082Z,100.00
2023-02-18T04:00:45.929Z,100.00
2023-02-18T04:03:12.664Z,100.00
2023-02-18T04:05:39.403Z,100.00
2023-02-18T04:08:06.197Z,100.00
2023-02-18T04:10:33.059Z,100.00
2023-02-18T04:12:59.958Z,100.00
2023-02-18T04:15:28.239Z,100.00
2023-02-18T04:17:55.101Z,100.00
2023-02-18T04:20:22.272Z,100.00
2023-02-18T04:22:49.650Z,100.00
2023-02-18T04:25:18.620Z,100.00
2023-02-18T04:27:45.454Z,100.00
2023-02-18T04:30:13.128Z,100.00
2023-02-18T04:32:43.230Z,100.00
2023-02-18T04:35:10.653Z,100.00
2023-02-18T04:37:38.003Z,100.00
2023-02-18T04:40:05.831Z,100.00
2023-02-18T04:42:32.592Z,100.00
2023-02-18T04:44:59.623Z,100.00
2023-02-18T04:47:27.102Z,100.00
2023-02-18T04:49:55.265Z,100.00
2023-02-18T04:52:24.534Z,100.00
2023-02-18T04:54:51.388Z,100.00
2023-02-18T04:57:18.379Z,100.00
2023-02-18T04:59:48.402Z,100.00
2023-02-18T05:02:15.464Z,100.00
2023-02-18T05:04:42.772Z,100.00
2023-02-18T05:07:10.921Z,100.00
2023-02-18T05:09:37.723Z,100.00
2023-02-18T05:12:04.746Z,100.00
2023-02-18T05:14:31.505Z,100.00
2023-02-18T05:16:58.222Z,100.00
2023-02-18T05:19:25.023Z,100.00
2023-02-18T05:21:51.811Z,100.00
2023-02-18T05:24:20.054Z,100.00
2023-02-18T05:26:46.816Z,100.00
2023-02-18T05:29:13.567Z,100.00
2023-02-18T05:31:40.318Z,100.00
2023-02-18T05:34:07.343Z,100.00
2023-02-18T05:36:34.608Z,100.00
2023-02-18T05:39:01.299Z,100.00
2023-02-18T05:41:29.424Z,100.00
2023-02-18T05:43:56.213Z,100.00
2023-02-18T05:46:24.640Z,100.00
2023-02-18T05:48:51.365Z,100.00
2023-02-18T05:51:18.517Z,100.00
2023-02-18T05:53:45.477Z,100.00
2023-02-18T05:56:12.180Z,100.00
2023-02-18T05:58:40.354Z,100.00
2023-02-18T06:01:07.065Z,100.00
2023-02-18T06:03:33.747Z,100.00
2023-02-18T06:06:00.544Z,100.00
2023-02-18T06:08:27.702Z,100.00
2023-02-18T06:10:54.399Z,100.00
2023-02-18T06:13:21.089Z,100.00
2023-02-18T06:15:51.012Z,100.00
2023-02-18T06:18:18.554Z,100.00
2023-02-18T06:20:47.171Z,100.00
2023-02-18T06:23:14.419Z,100.00
2023-02-18T06:25:41.535Z,100.00
2023-02-18T06:28:08.486Z,100.00
2023-02-18T06:30:36.437Z,100.00
2023-02-18T06:33:04.606Z,100.00
2023-02-18T06:35:31.752Z,100.00
2023-02-18T06:37:58.721Z,100.00
2023-02-18T06:40:25.511Z,100.00
2023-02-18T06:42:52.397Z,100.00
2023-02-18T06:45:19.378Z,100.00
2023-02-18T06:47:46.071Z,100.00
2023-02-18T06:50:14.594Z,100.00
2023-02-18T06:52:41.342Z,100.00
2023-02-18T06:55:09.144Z,100.00
2023-02-18T06:57:36.253Z,100.00
2023-02-18T07:00:04.211Z,100.00
2023-02-18T07:02:30.916Z,100.00
2023-02-18T07:04:57.636Z,100.00
2023-02-18T07:07:37.611Z,100.00
2023-02-18T07:10:13.099Z,100.00
2023-02-18T07:12:55.617Z,100.00
2023-02-18T07:15:29.053Z,100.00
2023-02-18T07:18:05.245Z,100.00
2023-02-18T07:20:36.834Z,100.00
2023-02-18T07:23:16.049Z,100.00
2023-02-18T07:26:06.138Z,100.00
2023-02-18T07:28:37.404Z,100.00
2023-02-18T07:31:08.580Z,100.00
2023-02-18T07:33:47.584Z,100.00
2023-02-18T07:36:14.760Z,100.00
2023-02-18T07:38:55.704Z,100.00
2023-02-18T07:41:46.736Z,100.00
2023-02-18T07:44:42.062Z,100.00
2023-02-18T07:47:27.842Z,100.00
2023-02-18T07:49:57.924Z,100.00
2023-02-18T07:55:52.497Z,100.00
2023-02-18T07:58:36.288Z,100.00
2023-02-18T08:01:09.206Z,100.00
2023-02-18T08:03:41.877Z,100.00
2023-02-18T08:06:52.446Z,100.00
2023-02-18T08:22:22.414Z,100.00
2023-02-18T08:25:18.088Z,100.00
2023-02-18T08:27:57.993Z,100.00
2023-02-18T08:30:31.693Z,100.00
2023-02-18T08:33:06.643Z,100.00
2023-02-18T08:35:44.967Z,100.00
2023-02-18T08:38:28.457Z,100.00
2023-02-18T08:41:27.984Z,100.00
2023-02-18T08:43:58.058Z,100.00
2023-02-18T08:46:33.498Z,100.00
2023-02-18T08:49:15.502Z,100.00
2023-02-18T08:51:43.198Z,100.00
2023-02-18T08:54:24.852Z,100.00
2023-02-18T08:56:55.279Z,100.00
2023-02-18T08:59:22.326Z,100.00
2023-02-18T09:01:49.343Z,100.00
2023-02-18T10:21:01.041Z,100.00
